createdAt,value
2022-08-10T00:04:54.234Z,13.18
2022-08-10T00:09:57.317Z,18.77
2022-08-10T00:15:00.803Z,16.50
2022-08-10T00:20:08.743Z,22.23
2022-08-10T00:25:11.951Z,23.30
2022-08-10T00:30:14.801Z,27.20
2022-08-10T00:35:17.637Z,18.60
2022-08-10T00:40:37.216Z,23.40
2022-08-10T00:45:40.896Z,15.40
2022-08-10T00:50:43.800Z,23.08
2022-08-10T00:57:12.823Z,20.02
2022-08-10T01:01:11.003Z,16.77
2022-08-10T01:07:06.166Z,18.00
2022-08-10T01:12:38.517Z,13.95
2022-08-10T01:17:57.284Z,13.50
2022-08-10T01:23:29.081Z,16.20
2022-08-10T01:28:56.193Z,12.27
2022-08-10T01:34:04.110Z,18.50
2022-08-10T01:39:08.095Z,19.02
2022-08-10T01:44:20.018Z,13.85
2022-08-10T01:49:24.264Z,10.70
2022-08-10T01:54:28.028Z,10.48
2022-08-10T01:59:36.061Z,10.85
2022-08-10T02:09:57.322Z,14.90
2022-08-10T02:15:05.282Z,12.13
2022-08-10T02:20:22.872Z,14.02
2022-08-10T02:25:41.951Z,12.35
2022-08-10T02:30:48.425Z,17.17
2022-08-10T02:35:55.317Z,14.32
2022-08-10T02:42:18.359Z,10.05
2022-08-10T02:46:30.394Z,9.85
2022-08-10T02:52:08.658Z,10.48
2022-08-10T02:57:25.284Z,10.82
2022-08-10T03:02:46.435Z,8.05
2022-08-10T03:07:54.955Z,11.43
2022-08-10T03:13:02.739Z,17.45
2022-08-10T03:18:06.299Z,24.20
2022-08-10T03:23:15.196Z,22.35
2022-08-10T03:28:20.676Z,25.27
2022-08-10T03:33:27.886Z,21.70
2022-08-10T03:38:30.783Z,27.38
2022-08-10T03:43:34.446Z,14.57
2022-08-10T03:48:49.047Z,12.80
2022-08-10T03:54:05.734Z,17.45
2022-08-10T03:59:12.880Z,13.18
2022-08-10T04:04:22.487Z,16.42
2022-08-10T04:09:53.491Z,13.13
2022-08-10T04:14:54.698Z,9.57
2022-08-10T04:19:58.522Z,13.32
2022-08-10T04:25:05.187Z,11.57
2022-08-10T04:30:08.991Z,12.18
2022-08-10T04:35:12.207Z,10.93
2022-08-10T04:40:28.424Z,9.55
2022-08-10T04:45:49.283Z,10.73
2022-08-10T04:50:54.844Z,13.85
2022-08-10T04:55:57.634Z,9.13
2022-08-10T05:01:00.477Z,10.77
2022-08-10T05:06:03.494Z,12.20
2022-08-10T05:11:06.334Z,10.75
2022-08-10T05:16:09.096Z,16.60
2022-08-10T05:21:52.121Z,14.07
2022-08-10T05:27:00.320Z,15.20
2022-08-10T05:32:09.463Z,8.55
2022-08-10T05:38:09.628Z,7.57
2022-08-10T05:42:35.932Z,9.07
2022-08-10T05:48:54.646Z,8.23
2022-08-10T05:53:59.403Z,8.70
2022-08-10T05:58:25.757Z,10.10
2022-08-10T06:03:34.946Z,9.45
2022-08-10T06:08:39.764Z,9.15
2022-08-10T06:14:13.100Z,8.27
2022-08-10T06:19:19.618Z,8.75
2022-08-10T06:24:25.327Z,10.10
2022-08-10T06:29:33.742Z,11.27
2022-08-10T06:34:40.142Z,9.52
2022-08-10T06:39:43.511Z,10.95
2022-08-10T06:44:56.345Z,8.55
2022-08-10T06:50:04.960Z,9.27
2022-08-10T06:55:16.634Z,18.17
2022-08-10T07:00:21.878Z,12.60
2022-08-10T07:05:27.001Z,14.85
2022-08-10T07:10:45.581Z,10.82
2022-08-10T07:15:59.517Z,10.00
2022-08-10T07:21:04.866Z,10.37
2022-08-10T07:26:10.226Z,35.97
2022-08-10T07:31:54.958Z,10.00
2022-08-10T07:36:40.045Z,12.10
2022-08-10T07:46:47.996Z,10.63
2022-08-10T07:51:54.443Z,11.95
2022-08-10T07:57:02.509Z,9.60
2022-08-10T08:02:07.084Z,16.33
2022-08-10T08:07:09.861Z,11.43
2022-08-10T08:12:13.702Z,13.93
2022-08-10T08:17:17.243Z,11.68
2022-08-10T08:24:05.291Z,10.13
2022-08-10T08:27:47.901Z,13.60
2022-08-10T08:33:00.238Z,10.48
2022-08-10T08:38:32.361Z,8.52
2022-08-10T08:43:58.823Z,7.93
2022-08-10T08:49:09.530Z,8.55
2022-08-10T08:54:15.299Z,9.40
2022-08-10T08:59:51.541Z,9.07
2022-08-10T09:05:00.362Z,9.35
2022-08-10T09:10:27.762Z,7.47
2022-08-10T09:15:57.423Z,7.18
2022-08-10T09:21:55.071Z,10.60
2022-08-10T09:27:13.729Z,7.97
2022-08-10T09:36:16.275Z,7.45
2022-08-10T09:38:01.135Z,8.73
2022-08-10T09:43:25.190Z,7.68
2022-08-10T09:48:42.248Z,5.95
2022-08-10T09:53:54.602Z,7.70
2022-08-10T10:00:00.733Z,8.63
2022-08-10T10:05:16.726Z,8.52
2022-08-10T10:10:47.894Z,9.32
2022-08-10T10:16:03.944Z,11.13
2022-08-10T10:21:51.346Z,15.27
2022-08-10T10:27:24.244Z,8.77
2022-08-10T10:32:38.974Z,8.10
2022-08-10T10:43:29.288Z,9.82
2022-08-10T10:48:53.670Z,7.47
2022-08-10T10:54:03.446Z,7.85
2022-08-10T10:59:56.230Z,7.57
2022-08-10T11:05:16.440Z,11.80
2022-08-10T11:10:33.405Z,7.47
2022-08-10T11:15:42.833Z,7.20
2022-08-10T11:21:16.940Z,12.07
2022-08-10T11:26:26.742Z,9.90
2022-08-10T11:31:36.249Z,8.13
2022-08-10T11:36:41.770Z,8.75
2022-08-10T11:42:08.884Z,7.78
2022-08-10T11:47:18.317Z,7.70
2022-08-10T11:52:29.510Z,7.87
2022-08-10T11:57:53.069Z,10.73
2022-08-10T12:03:02.530Z,8.13
2022-08-10T12:10:04.847Z,9.30
2022-08-10T12:14:04.287Z,9.13
2022-08-10T12:19:24.856Z,8.65
2022-08-10T12:24:46.986Z,9.00
2022-08-10T12:29:55.883Z,9.50
2022-08-10T12:35:22.074Z,9.45
2022-08-10T12:40:35.706Z,10.85
2022-08-10T12:45:52.036Z,9.10
2022-08-10T12:51:15.322Z,8.35
2022-08-10T12:56:30.037Z,9.73
2022-08-10T13:02:06.919Z,8.10
2022-08-10T13:12:36.017Z,12.57
2022-08-10T13:17:46.853Z,9.48
2022-08-10T13:22:59.708Z,11.65
2022-08-10T13:28:37.854Z,14.68
2022-08-10T13:34:41.246Z,11.63
2022-08-10T13:38:59.193Z,11.05
2022-08-10T13:44:02.186Z,10.07
2022-08-10T13:49:06.309Z,15.55
2022-08-10T13:54:17.940Z,15.57
2022-08-10T13:59:22.415Z,13.30
2022-08-10T14:04:25.419Z,12.75
2022-08-10T14:09:31.838Z,13.35
2022-08-10T14:14:34.883Z,13.88
2022-08-10T14:19:43.752Z,13.90
2022-08-10T14:24:47.065Z,13.18
2022-08-10T14:29:55.464Z,14.52
2022-08-10T14:36:21.109Z,14.95
2022-08-10T14:40:26.053Z,20.77
2022-08-10T14:45:33.894Z,17.90
2022-08-10T14:50:55.609Z,24.38
2022-08-10T14:56:03.171Z,18.33
2022-08-10T15:01:07.460Z,23.85
2022-08-10T15:06:17.933Z,18.35
2022-08-10T15:12:12.337Z,22.52
2022-08-10T15:16:44.581Z,22.50
2022-08-10T15:21:47.527Z,32.88
2022-08-10T15:27:09.632Z,21.92
2022-08-10T15:32:37.407Z,25.08
2022-08-10T15:37:41.619Z,28.42
2022-08-10T15:42:58.385Z,27.23
2022-08-10T15:48:04.768Z,27.48
2022-08-10T15:53:17.077Z,26.00
2022-08-10T15:58:37.582Z,26.33
2022-08-10T16:03:54.680Z,42.80
2022-08-10T16:10:10.792Z,35.47
2022-08-10T16:14:36.646Z,34.45
2022-08-10T16:19:49.487Z,33.67
2022-08-10T16:24:52.473Z,36.92
2022-08-10T16:30:00.974Z,36.00
2022-08-10T16:35:09.845Z,34.25
2022-08-10T16:40:13.871Z,38.28
2022-08-10T16:45:25.003Z,40.97
2022-08-10T16:50:42.002Z,41.95
2022-08-10T16:55:50.969Z,32.83
2022-08-10T17:00:59.766Z,38.28
2022-08-10T17:06:10.844Z,41.08
2022-08-10T17:11:15.815Z,39.95
2022-08-10T17:16:18.636Z,42.63
2022-08-10T17:21:23.503Z,42.38
2022-08-10T17:26:37.011Z,40.93
2022-08-10T17:31:54.828Z,44.10
2022-08-10T17:37:02.729Z,43.15
2022-08-10T17:42:06.105Z,46.53
2022-08-10T17:47:11.281Z,41.25
2022-08-10T17:57:21.564Z,43.20
2022-08-10T18:02:28.422Z,41.28
2022-08-10T18:07:35.803Z,41.17
2022-08-10T18:12:48.398Z,39.83
2022-08-10T18:17:59.079Z,37.78
2022-08-10T18:23:04.022Z,44.83
2022-08-10T18:28:12.133Z,46.30
2022-08-10T18:33:16.356Z,43.45
2022-08-10T18:38:19.734Z,41.47
2022-08-10T18:44:05.546Z,43.35
2022-08-10T18:48:57.031Z,44.15
2022-08-10T18:54:05.690Z,41.53
2022-08-10T18:59:39.239Z,43.45
2022-08-10T19:05:30.137Z,41.80
2022-08-10T19:11:01.528Z,43.63
2022-08-10T19:16:15.098Z,40.00
2022-08-10T19:21:40.237Z,37.45
2022-08-10T19:27:04.488Z,31.55
2022-08-10T19:32:18.678Z,33.73
2022-08-10T19:38:00.743Z,28.30
2022-08-10T19:44:00.680Z,26.15
2022-08-10T19:48:54.052Z,25.70
2022-08-10T19:54:02.986Z,25.80
2022-08-10T19:59:11.346Z,24.40
2022-08-10T20:04:20.398Z,28.98
2022-08-10T20:09:35.034Z,30.55
2022-08-10T20:14:53.342Z,26.15
2022-08-10T20:19:59.409Z,35.08
2022-08-10T20:25:14.010Z,34.72
2022-08-10T20:30:17.605Z,37.40
2022-08-10T20:35:49.128Z,31.02
2022-08-10T20:41:27.505Z,32.20
2022-08-10T20:46:34.507Z,33.80
2022-08-10T20:52:00.463Z,35.58
2022-08-10T20:57:54.829Z,33.60
2022-08-10T21:03:21.015Z,33.92
2022-08-10T21:08:49.324Z,35.15
2022-08-10T21:14:19.162Z,34.22
2022-08-10T21:19:55.596Z,32.95
2022-08-10T21:25:04.050Z,31.40
2022-08-10T21:30:16.633Z,26.67
2022-08-10T21:35:41.866Z,24.17
2022-08-10T21:41:18.142Z,24.60
2022-08-10T21:47:04.770Z,30.52
2022-08-10T21:52:36.940Z,25.15
2022-08-10T21:58:06.705Z,26.38
2022-08-10T22:03:39.411Z,29.27
2022-08-10T22:09:04.309Z,29.48
2022-08-10T22:14:33.773Z,29.63
2022-08-10T22:20:03.077Z,29.67
2022-08-10T22:25:52.075Z,26.80
2022-08-10T22:37:12.653Z,32.50
2022-08-10T22:42:57.968Z,25.50
2022-08-10T22:48:23.873Z,46.33
2022-08-10T22:53:56.493Z,28.23
2022-08-10T22:58:59.240Z,26.52
2022-08-10T23:04:08.972Z,26.13
2022-08-10T23:09:14.754Z,30.45
2022-08-10T23:14:18.962Z,31.08
2022-08-10T23:19:26.288Z,30.58
2022-08-10T23:24:39.125Z,32.72
2022-08-10T23:30:09.873Z,34.58
2022-08-10T23:36:31.736Z,29.40
2022-08-10T23:40:36.806Z,30.35
2022-08-10T23:45:53.756Z,33.33
2022-08-10T23:51:02.728Z,27.08
2022-08-10T23:56:09.788Z,25.02
